Latest Weather Observations for Inner Beacon

IDQ60801

Issued at 6:22 am EST Wednesday 8 April 2020 (issued every 10 minutes, with the page automatically refreshed every 10 minutes)

About weather observations | Map of weather stations | Latest weather observations for QLD | Other Formats
Station Details ID: 040926 Name: INNER RECIPROCAL MARKER Lat: -27.26 Lon: 153.24 Height: 10.0 m
Data from the previous 72 hours. | See also: Recent months at Inner Beacon
Date/Time
EST
Temp
°C
App
Temp
°C
Dew
Point
°C
Rel
Hum
%
Delta-T
°C
Wind Press
QNH
hPa
Press
MSL
hPa
Rain since
9am
mm
Dir  Spd
km/h
Gust
km/h
Spd
kts
Gust
kts
08/06:00am - - - - - S 35 43 19 23 - - -
08/05:30am - - - - - S 33 39 18 21 - - -
08/05:00am - - - - - SSW 26 32 14 17 - - -
08/04:30am - - - - - SSW 22 33 12 18 - - -
08/04:00am - - - - - SSW 28 32 15 17 - - -
08/03:30am - - - - - SSW 26 32 14 17 - - -
08/03:00am - - - - - S 26 35 14 19 - - -
08/02:30am - - - - - S 32 37 17 20 - - -
08/02:00am - - - - - S 28 33 15 18 - - -
08/01:30am - - - - - S 26 32 14 17 - - -
08/01:00am - - - - - SSE 20 28 11 15 - - -
08/12:30am - - - - - SSW 22 30 12 16 - - -
08/12:00am - - - - - S 28 32 15 17 - - -
 
Date/Time
EST
Temp
°C
App
Temp
°C
Dew
Point
°C
Rel
Hum
%
Delta-T
°C
Wind Press
QNH
hPa
Press
MSL
hPa
Rain since
9am
mm
Dir  Spd
km/h
Gust
km/h
Spd
kts
Gust
kts
07/11:30pm - - - - - S 32 41 17 22 - - -
07/11:00pm - - - - - S 32 37 17 20 - - -
07/10:30pm - - - - - S 32 39 17 21 - - -
07/10:00pm - - - - - SSE 33 44 18 24 - - -
07/09:30pm - - - - - SSE 35 41 19 22 - - -
07/09:00pm - - - - - SSE 39 52 21 28 - - -
07/08:30pm - - - - - SSE 39 48 21 26 - - -
07/08:00pm - - - - - SSE 37 44 20 24 - - -
07/07:30pm - - - - - SSE 43 48 23 26 - - -
07/07:00pm - - - - - SSE 39 46 21 25 - - -
07/06:30pm - - - - - SE 37 48 20 26 - - -
07/06:00pm - - - - - SE 37 44 20 24 - - -
07/05:30pm - - - - - SE 35 43 19 23 - - -
07/05:00pm - - - - - SE 30 33 16 18 - - -
07/04:30pm - - - - - SE 30 37 16 20 - - -
07/04:00pm - - - - - SE 28 37 15 20 - - -
07/03:30pm - - - - - ESE 24 30 13 16 - - -
07/03:00pm - - - - - SE 22 30 12 16 - - -
07/02:30pm - - - - - SE 22 28 12 15 - - -
07/02:00pm - - - - - SE 24 32 13 17 - - -
07/01:30pm - - - - - SE 24 30 13 16 - - -
07/01:00pm - - - - - SE 26 30 14 16 - - -
07/12:30pm - - - - - SSE 28 33 15 18 - - -
07/12:00pm - - - - - SSE 28 33 15 18 - - -
07/11:30am - - - - - SSE 28 33 15 18 - - -
07/11:00am - - - - - SSE 26 32 14 17 - - -
07/10:30am - - - - - SSE 24 30 13 16 - - -
07/10:00am - - - - - SSE 24 30 13 16 - - -
07/09:30am - - - - - SSE 26 30 14 16 - - -
07/09:00am - - - - - S 22 32 12 17 - - -
07/08:30am - - - - - S 22 26 12 14 - - -
07/08:00am - - - - - S 24 28 13 15 - - -
07/07:30am - - - - - S 24 30 13 16 - - -
07/07:00am - - - - - S 28 35 15 19 - - -
07/06:30am - - - - - S 28 33 15 18 - - -
07/06:00am - - - - - S 26 30 14 16 - - -
07/05:30am - - - - - S 28 32 15 17 - - -
07/05:00am - - - - - S 28 32 15 17 - - -
07/04:30am - - - - - S 28 33 15 18 - - -
07/04:00am - - - - - S 30 37 16 20 - - -
07/03:30am - - - - - S 28 35 15 19 - - -
07/03:00am - - - - - S 24 30 13 16 - - -
07/02:30am - - - - - S 24 30 13 16 - - -
07/02:00am - - - - - S 26 30 14 16 - - -
07/01:30am - - - - - S 26 30 14 16 - - -
07/01:00am - - - - - S 26 30 14 16 - - -
07/12:30am - - - - - SSE 22 28 12 15 - - -
07/12:00am - - - - - SSE 20 24 11 13 - - -
 
Date/Time
EST
Temp
°C
App
Temp
°C
Dew
Point
°C
Rel
Hum
%
Delta-T
°C
Wind Press
QNH
hPa
Press
MSL
hPa
Rain since
9am
mm
Dir  Spd
km/h
Gust
km/h
Spd
kts
Gust
kts
06/11:30pm - - - - - S 20 26 11 14 - - -
06/11:00pm - - - - - SE 17 22 9 12 - - -
06/10:30pm - - - - - SE 19 24 10 13 - - -
06/10:00pm - - - - - ESE 20 26 11 14 - - -
06/09:30pm - - - - - ESE 22 26 12 14 - - -
06/09:00pm - - - - - SE 20 24 11 13 - - -
06/08:30pm - - - - - SE 17 26 9 14 - - -
06/08:00pm - - - - - SE 19 22 10 12 - - -
06/07:30pm - - - - - SE 22 28 12 15 - - -
06/07:00pm - - - - - ESE 24 32 13 17 - - -
06/06:30pm - - - - - SE 26 33 14 18 - - -
06/06:00pm - - - - - ESE 22 28 12 15 - - -
06/05:30pm - - - - - ESE 24 28 13 15 - - -
06/05:00pm - - - - - E 20 26 11 14 - - -
06/04:30pm - - - - - E 19 26 10 14 - - -
06/04:00pm - - - - - E 20 28 11 15 - - -
06/03:30pm - - - - - E 17 24 9 13 - - -
06/03:00pm - - - - - E 11 17 6 9 - - -
06/02:30pm - - - - - E 7 11 4 6 - - -
06/02:00pm - - - - - ESE 9 11 5 6 - - -
06/01:30pm - - - - - SE 7 13 4 7 - - -
06/01:00pm - - - - - S 4 6 2 3 - - -
06/12:30pm - - - - - SSW 4 6 2 3 - - -
06/12:00pm - - - - - SSW 6 7 3 4 - - -
06/11:30am - - - - - SSW 7 9 4 5 - - -
06/11:00am - - - - - S 9 13 5 7 - - -
06/10:30am - - - - - S 13 15 7 8 - - -
06/10:00am - - - - - SSW 11 15 6 8 - - -
06/09:30am - - - - - SSW 13 15 7 8 - - -
06/09:00am - - - - - SSW 15 19 8 10 - - -
06/08:30am - - - - - SSW 17 19 9 10 - - -
06/08:00am - - - - - SSW 15 17 8 9 - - -
06/07:30am - - - - - SW 17 19 9 10 - - -
06/07:00am - - - - - SSW 19 20 10 11 - - -
06/06:30am - - - - - SW 19 22 10 12 - - -
06/06:00am - - - - - SW 17 20 9 11 - - -
06/05:30am - - - - - SSW 20 22 11 12 - - -
06/05:00am - - - - - SSW 20 24 11 13 - - -
06/04:30am - - - - - S 22 26 12 14 - - -
06/04:00am - - - - - SSW 20 22 11 12 - - -
06/03:30am - - - - - SSW 22 24 12 13 - - -
06/03:00am - - - - - SSW 20 22 11 12 - - -
06/02:30am - - - - - SSW 19 24 10 13 - - -
06/02:00am - - - - - S 19 22 10 12 - - -
06/01:30am - - - - - S 19 22 10 12 - - -
06/01:00am - - - - - S 15 19 8 10 - - -
06/12:30am - - - - - S 15 19 8 10 - - -
06/12:00am - - - - - SSW 15 19 8 10 - - -
 
Date/Time
EST
Temp
°C
App
Temp
°C
Dew
Point
°C
Rel
Hum
%
Delta-T
°C
Wind Press
QNH
hPa
Press
MSL
hPa
Rain since
9am
mm
Dir  Spd
km/h
Gust
km/h
Spd
kts
Gust
kts
05/11:30pm - - - - - SE 9 13 5 7 - - -
05/11:00pm - - - - - SE 7 11 4 6 - - -
05/10:30pm - - - - - SE 11 17 6 9 - - -
05/10:00pm - - - - - ESE 13 17 7 9 - - -
05/09:30pm - - - - - SE 13 19 7 10 - - -
05/09:00pm - - - - - SE 17 24 9 13 - - -
05/08:30pm - - - - - SE 19 24 10 13 - - -
05/08:00pm - - - - - SE 20 26 11 14 - - -
05/07:30pm - - - - - SE 22 28 12 15 - - -
05/07:00pm - - - - - SE 20 26 11 14 - - -
05/06:30pm - - - - - SE 26 32 14 17 - - -
05/06:00pm - - - - - ESE 26 32 14 17 - - -
05/05:30pm - - - - - ESE 28 33 15 18 - - -
05/05:00pm - - - - - ESE 24 30 13 16 - - -
05/04:30pm - - - - - ESE 24 30 13 16 - - -
05/04:00pm - - - - - ESE 20 28 11 15 - - -
05/03:30pm - - - - - ESE 20 26 11 14 - - -
05/03:00pm - - - - - E 17 24 9 13 - - -
05/02:30pm - - - - - E 15 19 8 10 - - -
05/02:00pm - - - - - E 13 19 7 10 - - -
05/01:30pm - - - - - ESE 17 20 9 11 - - -
05/01:00pm - - - - - ESE 17 20 9 11 - - -
05/12:30pm - - - - - SE 13 17 7 9 - - -
05/12:00pm - - - - - SSE 13 15 7 8 - - -
05/11:30am - - - - - S 15 17 8 9 - - -
05/11:00am - - - - - SSW 19 20 10 11 - - -
05/10:30am - - - - - SSW 22 26 12 14 - - -
05/10:00am - - - - - SSW 24 28 13 15 - - -
05/09:30am - - - - - SSW 24 28 13 15 - - -
05/09:00am - - - - - SSW 24 28 13 15 - - -
05/08:30am - - - - - SSW 19 24 10 13 - - -
05/08:00am - - - - - SW 15 17 8 9 - - -
05/07:30am - - - - - SW 17 19 9 10 - - -
05/07:00am - - - - - SW 15 17 8 9 - - -
05/06:30am - - - - - SW 15 19 8 10 - - -

Other formats

Comma delimited format used in spreadsheet applications
http://www.bom.gov.au/fwo/IDQ60801/IDQ60801.94590.axf

JavaScript Object Notation format (JSON) in row-major order
http://www.bom.gov.au/fwo/IDQ60801/IDQ60801.94590.json

Data quality

Most of these data are generated automatically and are frequently updated. Quality checks on data are not normally performed. It is possible for incorrect values to appear. Refer to information at About Latest Weather Observations and please check the disclaimer before using these data.